Time,TemperatureF,DewpointF,PressureIn,WindDirection,WindDirectionDegrees,WindSpeedMPH,WindSpeedGustMPH,Humidity,HourlyPrecipIn,Conditions,Clouds,dailyrainin,SoftwareType,DateUTC
2015-02-01 00:01:00,32.5,27.3,30.22,WNW,298,0.0,0.0,81,0.00,,,0.00,WeatherCatV1.23B16,2015-02-01 05:01:00,
2015-02-01 00:06:00,32.4,27.5,30.22,WNW,298,0.0,0.0,82,0.00,,,0.00,WeatherCatV1.23B16,2015-02-01 05:06:00,
2015-02-01 00:11:00,32.4,27.5,30.22,WNW,298,0.0,0.0,82,0.00,,,0.01,WeatherCatV1.23B16,2015-02-01 05:11:00,
2015-02-01 00:21:00,32.4,27.8,30.22,WNW,298,0.0,0.0,83,0.00,,,0.01,WeatherCatV1.23B16,2015-02-01 05:21:00,
2015-02-01 00:26:00,32.4,27.8,30.22,WNW,298,0.0,0.0,83,0.00,,,0.01,WeatherCatV1.23B16,2015-02-01 05:26:00,
2015-02-01 00:31:00,32.4,28.1,30.22,WNW,298,0.0,0.0,84,0.00,,,0.01,WeatherCatV1.23B16,2015-02-01 05:31:00,
2015-02-01 00:36:00,32.2,27.9,30.22,WNW,298,0.0,0.0,84,0.00,,,0.01,WeatherCatV1.23B16,2015-02-01 05:36:00,
2015-02-01 00:41:00,32.2,27.9,30.22,WNW,298,0.0,0.0,84,0.00,,,0.01,WeatherCatV1.23B16,2015-02-01 05:41:00,
2015-02-01 00:46:00,32.2,28.2,30.20,WNW,298,0.0,0.0,85,0.00,,,0.01,WeatherCatV1.23B16,2015-02-01 05:46:00,
2015-02-01 00:51:00,32.2,28.2,30.20,WNW,298,0.0,0.0,85,0.00,,,0.01,WeatherCatV1.23B16,2015-02-01 05:51:00,
2015-02-01 00:56:00,32.2,28.2,30.20,WNW,298,0.0,0.0,85,0.00,,,0.01,WeatherCatV1.23B16,2015-02-01 05:56:00,
2015-02-01 01:01:00,32.2,28.5,30.19,WNW,298,0.0,0.0,86,0.00,,,0.01,WeatherCatV1.23B16,2015-02-01 06:01:00,
2015-02-01 01:06:00,32.2,28.5,30.19,WNW,298,0.0,0.0,86,0.00,,,0.01,WeatherCatV1.23B16,2015-02-01 06:06:00,
2015-02-01 01:11:00,32.2,28.5,30.19,WNW,298,0.0,0.0,86,0.00,,,0.01,WeatherCatV1.23B16,2015-02-01 06:11:00,
2015-02-01 01:16:00,32.1,28.4,30.20,WNW,298,0.0,0.0,86,0.00,,,0.01,WeatherCatV1.23B16,2015-02-01 06:16:00,
2015-02-01 01:21:00,32.1,28.4,30.20,WNW,298,0.0,0.0,86,0.00,,,0.01,WeatherCatV1.23B16,2015-02-01 06:21:00,
2015-02-01 01:26:00,32.1,28.4,30.20,WNW,298,0.0,0.0,86,0.00,,,0.01,WeatherCatV1.23B16,2015-02-01 06:26:00,
2015-02-01 01:31:00,32.1,28.4,30.20,WNW,298,0.0,0.0,86,0.00,,,0.01,WeatherCatV1.23B16,2015-02-01 06:31:00,
2015-02-01 01:36:00,32.1,28.4,30.20,WNW,298,0.0,0.0,86,0.00,,,0.01,WeatherCatV1.23B16,2015-02-01 06:36:00,
2015-02-01 01:41:00,31.9,28.2,30.20,WNW,298,0.0,0.0,86,0.00,,,0.01,WeatherCatV1.23B16,2015-02-01 06:41:00,
2015-02-01 01:46:00,31.9,28.2,30.20,WNW,298,0.0,0.0,86,0.00,,,0.01,WeatherCatV1.23B16,2015-02-01 06:46:00,
2015-02-01 01:51:00,31.9,28.2,30.20,WNW,298,0.0,0.0,86,0.00,,,0.01,WeatherCatV1.23B16,2015-02-01 06:51:00,
2015-02-01 01:56:00,31.9,28.5,30.20,WNW,298,0.0,0.0,87,0.00,,,0.01,WeatherCatV1.23B16,2015-02-01 06:56:00,
2015-02-01 02:01:00,31.9,28.5,30.20,WNW,298,0.0,0.0,87,0.00,,,0.01,WeatherCatV1.23B16,2015-02-01 07:01:00,
2015-02-01 02:06:00,31.9,28.5,30.20,WNW,298,0.0,0.0,87,0.00,,,0.01,WeatherCatV1.23B16,2015-02-01 07:06:00,
2015-02-01 02:11:00,31.9,28.5,30.20,WNW,298,0.0,0.0,87,0.00,,,0.01,WeatherCatV1.23B16,2015-02-01 07:11:00,
2015-02-01 02:16:00,31.9,28.5,30.19,WNW,298,0.0,0.0,87,0.00,,,0.01,WeatherCatV1.23B16,2015-02-01 07:16:00,
2015-02-01 02:21:00,31.9,28.5,30.19,WNW,298,0.0,0.0,87,0.00,,,0.01,WeatherCatV1.23B16,2015-02-01 07:21:00,
2015-02-01 02:26:00,31.9,28.5,30.19,WNW,298,0.0,0.0,87,0.00,,,0.01,WeatherCatV1.23B16,2015-02-01 07:26:00,
2015-02-01 02:31:00,31.9,28.5,30.18,WNW,298,0.0,0.0,87,0.00,,,0.01,WeatherCatV1.23B16,2015-02-01 07:31:00,
2015-02-01 02:36:00,31.9,28.5,30.18,WNW,298,0.0,0.0,87,0.00,,,0.01,WeatherCatV1.23B16,2015-02-01 07:36:00,
2015-02-01 02:41:00,31.9,28.5,30.18,WNW,298,0.0,0.0,87,0.00,,,0.01,WeatherCatV1.23B16,2015-02-01 07:41:00,
2015-02-01 02:46:00,31.8,28.4,30.17,WNW,298,0.0,0.0,87,0.00,,,0.01,WeatherCatV1.23B16,2015-02-01 07:46:00,
2015-02-01 02:51:00,31.8,28.4,30.17,WNW,298,0.0,0.0,87,0.00,,,0.01,WeatherCatV1.23B16,2015-02-01 07:51:00,
2015-02-01 02:56:00,31.8,28.7,30.17,WNW,298,0.0,0.0,88,0.00,,,0.01,WeatherCatV1.23B16,2015-02-01 07:56:00,
2015-02-01 03:01:00,31.8,28.7,30.17,WNW,298,0.0,0.0,88,0.00,,,0.01,WeatherCatV1.23B16,2015-02-01 08:01:00,
2015-02-01 03:06:00,31.8,28.7,30.17,WNW,298,0.0,0.0,88,0.00,,,0.01,WeatherCatV1.23B16,2015-02-01 08:06:00,
2015-02-01 03:11:00,31.6,28.5,30.17,WNW,298,0.0,0.0,88,0.00,,,0.01,WeatherCatV1.23B16,2015-02-01 08:11:00,
2015-02-01 03:16:00,31.6,28.5,30.16,WNW,298,0.0,0.0,88,0.00,,,0.01,WeatherCatV1.23B16,2015-02-01 08:16:00,
2015-02-01 03:21:00,31.6,28.5,30.16,WNW,298,0.0,0.0,88,0.00,,,0.01,WeatherCatV1.23B16,2015-02-01 08:21:00,
2015-02-01 03:26:00,31.5,28.4,30.16,WNW,298,0.0,0.0,88,0.00,,,0.01,WeatherCatV1.23B16,2015-02-01 08:26:00,
2015-02-01 03:31:00,31.5,28.4,30.15,WNW,298,0.0,0.0,88,0.00,,,0.01,WeatherCatV1.23B16,2015-02-01 08:31:00,
2015-02-01 03:36:00,31.5,28.4,30.15,WNW,298,0.0,0.0,88,0.00,,,0.01,WeatherCatV1.23B16,2015-02-01 08:36:00,
2015-02-01 03:41:00,31.5,28.4,30.15,WNW,298,0.0,0.0,88,0.00,,,0.01,WeatherCatV1.23B16,2015-02-01 08:41:00,
2015-02-01 03:46:00,31.3,28.2,30.16,WNW,298,0.0,0.0,88,0.00,,,0.01,WeatherCatV1.23B16,2015-02-01 08:46:00,
2015-02-01 03:51:00,31.3,28.2,30.16,WNW,298,0.0,0.0,88,0.00,,,0.01,WeatherCatV1.23B16,2015-02-01 08:51:00,
2015-02-01 03:56:00,31.3,28.2,30.16,WNW,298,0.0,0.0,88,0.00,,,0.01,WeatherCatV1.23B16,2015-02-01 08:56:00,
2015-02-01 04:01:00,31.3,28.2,30.15,WNW,298,0.0,0.0,88,0.00,,,0.01,WeatherCatV1.23B16,2015-02-01 09:01:00,
2015-02-01 04:06:00,31.3,28.2,30.15,WNW,298,0.0,0.0,88,0.00,,,0.01,WeatherCatV1.23B16,2015-02-01 09:06:00,
2015-02-01 04:11:00,31.3,28.2,30.15,WNW,298,0.0,0.0,88,0.00,,,0.01,WeatherCatV1.23B16,2015-02-01 09:11:00,
2015-02-01 04:16:00,31.3,28.2,30.14,WNW,298,0.0,0.0,88,0.00,,,0.01,WeatherCatV1.23B16,2015-02-01 09:16:00,
2015-02-01 04:21:00,31.3,28.2,30.14,WNW,298,0.0,0.0,88,0.00,,,0.01,WeatherCatV1.23B16,2015-02-01 09:21:00,
2015-02-01 04:26:00,31.3,28.2,30.14,WNW,298,0.0,0.0,88,0.00,,,0.01,WeatherCatV1.23B16,2015-02-01 09:26:00,
2015-02-01 04:31:00,31.3,28.2,30.13,WNW,298,0.0,0.0,88,0.00,,,0.01,WeatherCatV1.23B16,2015-02-01 09:31:00,
2015-02-01 04:36:00,31.3,28.2,30.13,WNW,298,0.0,0.0,88,0.00,,,0.01,WeatherCatV1.23B16,2015-02-01 09:36:00,
2015-02-01 04:41:00,31.3,28.2,30.13,WNW,298,0.0,0.0,88,0.00,,,0.01,WeatherCatV1.23B16,2015-02-01 09:41:00,
2015-02-01 04:46:00,31.3,28.2,30.13,WNW,298,0.0,0.0,88,0.00,,,0.01,WeatherCatV1.23B16,2015-02-01 09:46:00,
2015-02-01 04:51:00,31.3,28.2,30.13,WNW,298,0.0,0.0,88,0.00,,,0.01,WeatherCatV1.23B16,2015-02-01 09:51:00,
2015-02-01 04:56:00,31.5,28.4,30.13,WNW,298,0.0,0.0,88,0.00,,,0.01,WeatherCatV1.23B16,2015-02-01 09:56:00,
2015-02-01 05:01:00,31.5,28.4,30.13,WNW,298,0.0,0.0,88,0.00,,,0.01,WeatherCatV1.23B16,2015-02-01 10:01:00,
2015-02-01 05:06:00,31.5,28.4,30.13,WNW,298,0.0,0.0,88,0.00,,,0.01,WeatherCatV1.23B16,2015-02-01 10:06:00,
2015-02-01 05:11:00,31.5,28.4,30.13,WNW,298,0.0,0.0,88,0.00,,,0.01,WeatherCatV1.23B16,2015-02-01 10:11:00,
2015-02-01 05:16:00,31.5,28.4,30.13,WNW,298,0.0,0.0,88,0.00,,,0.01,WeatherCatV1.23B16,2015-02-01 10:16:00,
2015-02-01 05:21:00,31.5,28.4,30.13,WNW,298,0.0,0.0,88,0.00,,,0.01,WeatherCatV1.23B16,2015-02-01 10:21:00,
2015-02-01 05:26:00,31.5,28.4,30.13,WNW,298,0.0,0.0,88,0.00,,,0.01,WeatherCatV1.23B16,2015-02-01 10:26:00,
2015-02-01 05:31:00,31.5,28.1,30.12,WNW,298,0.0,0.0,87,0.00,,,0.01,WeatherCatV1.23B16,2015-02-01 10:31:00,
2015-02-01 05:36:00,31.6,28.2,30.12,WNW,298,0.0,0.0,87,0.00,,,0.01,WeatherCatV1.23B16,2015-02-01 10:36:00,
2015-02-01 05:41:00,31.8,28.4,30.12,WNW,298,0.0,0.0,87,0.00,,,0.01,WeatherCatV1.23B16,2015-02-01 10:41:00,
2015-02-01 05:46:00,31.8,28.1,30.10,WNW,298,0.0,0.0,86,0.00,,,0.01,WeatherCatV1.23B16,2015-02-01 10:46:00,
2015-02-01 05:51:00,31.8,28.1,30.10,WNW,298,0.0,0.0,86,0.00,,,0.01,WeatherCatV1.23B16,2015-02-01 10:51:00,
2015-02-01 05:56:00,31.8,28.1,30.10,WNW,298,0.0,0.0,86,0.00,,,0.01,WeatherCatV1.23B16,2015-02-01 10:56:00,
2015-02-01 06:01:00,31.8,28.1,30.10,WNW,298,0.0,0.0,86,0.00,,,0.01,WeatherCatV1.23B16,2015-02-01 11:01:00,
2015-02-01 06:06:00,31.8,28.1,30.10,WNW,298,0.0,0.0,86,0.00,,,0.01,WeatherCatV1.23B16,2015-02-01 11:06:00,
2015-02-01 06:11:00,31.8,28.1,30.10,WNW,298,0.0,0.0,86,0.00,,,0.01,WeatherCatV1.23B16,2015-02-01 11:11:00,
2015-02-01 06:16:00,31.9,27.9,30.08,WNW,298,0.0,0.0,85,0.00,,,0.01,WeatherCatV1.23B16,2015-02-01 11:16:00,
2015-02-01 06:21:00,31.9,27.9,30.08,WNW,298,0.0,0.0,85,0.00,,,0.01,WeatherCatV1.23B16,2015-02-01 11:21:00,
2015-02-01 06:26:00,31.9,27.9,30.08,WNW,298,0.0,0.0,85,0.00,,,0.01,WeatherCatV1.23B16,2015-02-01 11:26:00,
2015-02-01 06:31:00,31.9,27.6,30.07,WNW,298,0.0,0.0,84,0.00,,,0.01,WeatherCatV1.23B16,2015-02-01 11:31:00,
2015-02-01 06:36:00,32.1,27.8,30.07,WNW,298,0.0,0.0,84,0.00,,,0.01,WeatherCatV1.23B16,2015-02-01 11:36:00,
2015-02-01 06:41:00,32.1,27.8,30.07,WNW,298,0.0,0.0,84,0.00,,,0.01,WeatherCatV1.23B16,2015-02-01 11:41:00,
2015-02-01 06:46:00,32.1,27.8,30.07,WNW,298,0.0,0.0,84,0.00,,,0.01,WeatherCatV1.23B16,2015-02-01 11:46:00,
2015-02-01 06:51:00,32.1,27.8,30.07,WNW,298,0.0,0.0,84,0.00,,,0.01,WeatherCatV1.23B16,2015-02-01 11:51:00,
2015-02-01 06:56:00,32.2,27.9,30.07,WNW,298,0.0,0.0,84,0.00,,,0.01,WeatherCatV1.23B16,2015-02-01 11:56:00,
2015-02-01 07:01:00,32.7,28.4,30.06,North,355,0.0,0.0,84,0.00,,,0.01,WeatherCatV1.23B16,2015-02-01 12:01:00,
2015-02-01 07:06:00,32.9,28.6,30.06,North,355,0.0,0.0,84,0.00,,,0.01,WeatherCatV1.23B16,2015-02-01 12:06:00,
2015-02-01 07:11:00,33.2,28.9,30.06,ENE,62,0.0,0.0,84,0.00,,,0.01,WeatherCatV1.23B16,2015-02-01 12:11:00,
2015-02-01 07:16:00,33.2,28.9,30.05,ENE,62,0.0,0.0,84,0.00,,,0.01,WeatherCatV1.23B16,2015-02-01 12:16:00,
2015-02-01 07:21:00,33.2,28.9,30.05,ENE,62,0.0,0.0,84,0.00,,,0.01,WeatherCatV1.23B16,2015-02-01 12:21:00,
2015-02-01 07:26:00,33.4,29.1,30.05,ENE,62,0.0,0.0,84,0.00,,,0.01,WeatherCatV1.23B16,2015-02-01 12:26:00,
2015-02-01 07:31:00,33.4,29.1,30.03,ENE,62,0.0,0.0,84,0.00,,,0.01,WeatherCatV1.23B16,2015-02-01 12:31:00,
2015-02-01 07:36:00,33.5,29.5,30.03,ENE,62,0.0,0.0,85,0.00,,,0.01,WeatherCatV1.23B16,2015-02-01 12:36:00,
2015-02-01 07:41:00,33.5,29.5,30.03,West,280,1.0,2.0,85,0.00,,,0.01,WeatherCatV1.23B16,2015-02-01 12:41:00,
2015-02-01 07:46:00,33.5,29.5,30.03,West,280,0.0,0.0,85,0.00,,,0.01,WeatherCatV1.23B16,2015-02-01 12:46:00,
2015-02-01 07:51:00,33.5,29.5,30.03,West,280,0.0,0.0,85,0.00,,,0.01,WeatherCatV1.23B16,2015-02-01 12:51:00,
2015-02-01 07:56:00,33.5,29.5,30.03,West,280,0.0,0.0,85,0.00,,,0.01,WeatherCatV1.23B16,2015-02-01 12:56:00,
2015-02-01 08:01:00,33.5,29.5,30.01,West,280,0.0,0.0,85,0.00,,,0.01,WeatherCatV1.23B16,2015-02-01 13:01:00,
2015-02-01 08:06:00,33.5,29.5,30.01,West,277,0.0,0.0,85,0.00,,,0.01,WeatherCatV1.23B16,2015-02-01 13:06:00,
2015-02-01 08:11:00,33.5,29.8,30.01,West,277,0.0,0.0,86,0.00,,,0.01,WeatherCatV1.23B16,2015-02-01 13:11:00,
2015-02-01 08:16:00,33.5,29.8,29.99,West,277,0.0,0.0,86,0.00,,,0.01,WeatherCatV1.23B16,2015-02-01 13:16:00,
2015-02-01 08:22:00,33.7,30.0,29.99,West,277,0.0,1.0,86,0.00,,,0.01,WeatherCatV1.23B16,2015-02-01 13:22:00,
2015-02-01 08:27:00,33.7,30.0,29.99,WNW,298,0.0,0.0,86,0.00,,,0.01,WeatherCatV1.23B16,2015-02-01 13:27:00,
2015-02-01 08:32:00,33.8,30.1,29.98,SSW,207,0.0,0.0,86,0.00,,,0.01,WeatherCatV1.23B16,2015-02-01 13:32:00,
2015-02-01 08:37:00,33.8,29.8,29.98,SSW,208,0.0,0.0,85,0.00,,,0.01,WeatherCatV1.23B16,2015-02-01 13:37:00,
2015-02-01 08:42:00,33.8,29.8,29.98,West,262,0.0,0.0,85,0.00,,,0.01,WeatherCatV1.23B16,2015-02-01 13:42:00,
2015-02-01 08:47:00,34.0,30.0,29.98,West,262,0.0,0.0,85,0.00,,,0.01,WeatherCatV1.23B16,2015-02-01 13:47:00,
2015-02-01 08:52:00,34.0,30.0,29.98,West,262,0.0,0.0,85,0.00,,,0.01,WeatherCatV1.23B16,2015-02-01 13:52:00,
2015-02-01 08:57:00,34.1,30.1,29.98,West,262,0.0,0.0,85,0.00,,,0.01,WeatherCatV1.23B16,2015-02-01 13:57:00,
2015-02-01 09:02:00,34.1,30.1,29.97,West,262,0.0,0.0,85,0.00,,,0.01,WeatherCatV1.23B16,2015-02-01 14:02:00,
2015-02-01 09:07:00,34.3,30.3,29.97,West,262,0.0,0.0,85,0.00,,,0.01,WeatherCatV1.23B16,2015-02-01 14:07:00,
2015-02-01 09:12:00,34.3,30.0,29.97,West,276,0.0,1.0,84,0.00,,,0.01,WeatherCatV1.23B16,2015-02-01 14:12:00,
2015-02-01 09:17:00,34.4,29.8,29.98,West,276,0.0,0.0,83,0.00,,,0.01,WeatherCatV1.23B16,2015-02-01 14:17:00,
2015-02-01 09:22:00,34.6,30.0,29.98,West,276,0.0,0.0,83,0.00,,,0.01,WeatherCatV1.23B16,2015-02-01 14:22:00,
2015-02-01 09:27:00,34.6,29.7,29.98,West,276,0.0,0.0,82,0.00,,,0.01,WeatherCatV1.23B16,2015-02-01 14:27:00,
2015-02-01 09:32:00,34.7,29.5,29.97,West,276,0.0,0.0,81,0.00,,,0.01,WeatherCatV1.23B16,2015-02-01 14:32:00,
2015-02-01 09:37:00,34.7,29.2,29.97,West,276,0.0,0.0,80,0.00,,,0.01,WeatherCatV1.23B16,2015-02-01 14:37:00,
2015-02-01 09:42:00,34.9,28.8,29.97,West,276,0.0,0.0,78,0.00,,,0.01,WeatherCatV1.23B16,2015-02-01 14:42:00,
2015-02-01 09:47:00,35.0,28.5,29.93,West,276,0.0,0.0,77,0.00,,,0.01,WeatherCatV1.23B16,2015-02-01 14:47:00,
2015-02-01 09:52:00,35.3,28.8,29.93,West,276,0.0,0.0,77,0.00,,,0.02,WeatherCatV1.23B16,2015-02-01 14:52:00,
2015-02-01 09:57:00,35.5,28.4,29.93,West,276,0.0,0.0,75,0.00,,,0.02,WeatherCatV1.23B16,2015-02-01 14:57:00,
2015-02-01 10:02:00,35.8,28.7,29.93,West,276,0.0,0.0,75,0.00,,,0.02,WeatherCatV1.23B16,2015-02-01 15:02:00,
2015-02-01 10:07:00,36.0,28.9,29.93,West,276,0.0,0.0,75,0.00,,,0.02,WeatherCatV1.23B16,2015-02-01 15:07:00,
2015-02-01 10:12:00,36.2,28.7,29.93,West,276,0.0,0.0,74,0.00,,,0.02,WeatherCatV1.23B16,2015-02-01 15:12:00,
2015-02-01 10:17:00,36.5,28.7,29.93,West,276,0.0,0.0,73,0.00,,,0.02,WeatherCatV1.23B16,2015-02-01 15:17:00,
2015-02-01 10:22:00,36.6,28.8,29.93,West,276,0.0,0.0,73,0.00,,,0.02,WeatherCatV1.23B16,2015-02-01 15:22:00,
2015-02-01 10:27:00,37.0,28.8,29.93,West,276,0.0,0.0,72,0.00,,,0.02,WeatherCatV1.23B16,2015-02-01 15:27:00,
2015-02-01 10:32:00,37.3,29.1,29.92,West,276,0.0,0.0,72,0.00,,,0.02,WeatherCatV1.23B16,2015-02-01 15:32:00,
2015-02-01 10:37:00,37.9,28.6,29.92,West,276,0.0,0.0,69,0.00,,,0.02,WeatherCatV1.23B16,2015-02-01 15:37:00,
2015-02-01 10:42:00,38.3,28.0,29.92,West,276,0.0,0.0,66,0.00,,,0.02,WeatherCatV1.23B16,2015-02-01 15:42:00,
2015-02-01 10:47:00,38.9,28.1,29.91,West,276,0.0,0.0,65,0.00,,,0.02,WeatherCatV1.23B16,2015-02-01 15:47:00,
2015-02-01 10:52:00,39.5,27.6,29.91,WNW,298,0.0,1.0,62,0.00,,,0.02,WeatherCatV1.23B16,2015-02-01 15:52:00,
2015-02-01 10:57:00,39.8,26.7,29.91,WNW,298,0.0,0.0,59,0.00,,,0.02,WeatherCatV1.23B16,2015-02-01 15:57:00,
2015-02-01 11:02:00,40.1,26.9,29.90,WNW,298,0.0,0.0,59,0.00,,,0.02,WeatherCatV1.23B16,2015-02-01 16:02:00,
2015-02-01 11:07:00,40.5,28.1,29.90,WNW,298,0.0,0.0,61,0.00,,,0.02,WeatherCatV1.23B16,2015-02-01 16:07:00,
2015-02-01 11:12:00,40.6,27.0,29.90,WNW,298,0.0,0.0,58,0.00,,,0.02,WeatherCatV1.23B16,2015-02-01 16:12:00,
2015-02-01 11:17:00,40.9,27.3,29.89,WNW,298,0.0,0.0,58,0.00,,,0.02,WeatherCatV1.23B16,2015-02-01 16:17:00,
2015-02-01 11:22:00,41.2,27.1,29.89,WNW,298,0.0,0.0,57,0.00,,,0.02,WeatherCatV1.23B16,2015-02-01 16:22:00,
2015-02-01 11:27:00,41.5,27.0,29.89,WNW,298,0.0,0.0,56,0.00,,,0.02,WeatherCatV1.23B16,2015-02-01 16:27:00,
2015-02-01 11:32:00,41.6,26.6,29.88,WNW,298,1.0,1.0,55,0.00,,,0.02,WeatherCatV1.23B16,2015-02-01 16:32:00,
2015-02-01 11:37:00,41.8,27.3,29.88,SE,142,2.0,3.0,56,0.00,,,0.02,WeatherCatV1.23B16,2015-02-01 16:37:00,
2015-02-01 11:42:00,41.9,26.0,29.88,SE,142,0.0,0.0,53,0.00,,,0.02,WeatherCatV1.23B16,2015-02-01 16:42:00,
2015-02-01 11:47:00,42.1,26.7,29.87,SE,142,0.0,0.0,54,0.00,,,0.02,WeatherCatV1.23B16,2015-02-01 16:47:00,
2015-02-01 11:52:00,42.1,25.8,29.87,SE,142,0.0,1.0,52,0.00,,,0.02,WeatherCatV1.23B16,2015-02-01 16:52:00,
2015-02-01 11:57:00,42.2,26.3,29.87,ESE,111,0.0,0.0,53,0.00,,,0.02,WeatherCatV1.23B16,2015-02-01 16:57:00,
2015-02-01 12:02:00,42.3,26.9,29.87,WNW,302,0.0,0.0,54,0.00,,,0.02,WeatherCatV1.23B16,2015-02-01 17:02:00,
2015-02-01 12:07:00,42.3,26.4,29.87,WNW,291,0.0,0.0,53,0.00,,,0.02,WeatherCatV1.23B16,2015-02-01 17:07:00,
2015-02-01 12:12:00,42.3,26.9,29.87,WNW,290,0.0,0.0,54,0.00,,,0.02,WeatherCatV1.23B16,2015-02-01 17:12:00,
2015-02-01 12:17:00,42.2,26.8,29.84,NNE,32,0.0,0.0,54,0.00,,,0.02,WeatherCatV1.23B16,2015-02-01 17:17:00,
2015-02-01 12:22:00,42.1,28.0,29.84,NNE,32,1.0,1.0,57,0.00,,,0.02,WeatherCatV1.23B16,2015-02-01 17:22:00,
2015-02-01 12:27:00,41.8,27.7,29.84,ESE,119,0.0,0.0,57,0.00,,,0.02,WeatherCatV1.23B16,2015-02-01 17:27:00,
2015-02-01 12:32:00,41.5,28.7,29.82,ESE,119,0.0,0.0,60,0.00,,,0.02,WeatherCatV1.23B16,2015-02-01 17:32:00,
2015-02-01 12:37:00,41.5,29.5,29.82,NW,324,0.0,0.0,62,0.00,,,0.02,WeatherCatV1.23B16,2015-02-01 17:37:00,
2015-02-01 12:42:00,41.3,29.7,29.82,WNW,293,0.0,0.0,63,0.00,,,0.02,WeatherCatV1.23B16,2015-02-01 17:42:00,
2015-02-01 12:47:00,41.2,30.7,29.80,WNW,293,0.0,1.0,66,0.00,,,0.02,WeatherCatV1.23B16,2015-02-01 17:47:00,
2015-02-01 12:50:00,41.1,31.4,29.80,ESE,113,0.0,3.0,68,0.00,,,0.02,WeatherCatV1.23B16,2015-02-01 17:50:00,
2015-02-01 12:55:00,40.9,31.5,29.80,SW,228,0.0,2.0,69,0.00,,,0.02,WeatherCatV1.23B16,2015-02-01 17:55:00,
2015-02-01 13:00:00,40.8,32.1,29.78,SW,228,0.0,0.0,71,0.00,,,0.03,WeatherCatV1.23B16,2015-02-01 18:00:00,
2015-02-01 13:05:00,40.5,32.9,29.78,SSE,162,0.0,0.0,74,0.00,,,0.03,WeatherCatV1.23B16,2015-02-01 18:05:00,
2015-02-01 13:10:00,40.3,33.0,29.78,SSE,162,0.0,0.0,75,0.05,,,0.04,WeatherCatV1.23B16,2015-02-01 18:10:00,
2015-02-01 13:15:00,40.2,33.6,29.76,SSE,162,0.0,0.0,77,0.10,,,0.05,WeatherCatV1.23B16,2015-02-01 18:15:00,
2015-02-01 13:20:00,40.1,33.8,29.76,SSE,162,0.0,0.0,78,0.09,,,0.05,WeatherCatV1.23B16,2015-02-01 18:20:00,
2015-02-01 13:25:00,39.9,34.2,29.76,SSE,162,0.0,0.0,80,0.05,,,0.05,WeatherCatV1.23B16,2015-02-01 18:25:00,
2015-02-01 13:30:00,39.8,34.5,29.75,SSE,162,0.0,0.0,81,0.04,,,0.05,WeatherCatV1.23B16,2015-02-01 18:30:00,
2015-02-01 13:35:00,39.8,34.8,29.75,SSE,162,0.0,0.0,82,0.00,,,0.06,WeatherCatV1.23B16,2015-02-01 18:35:00,
2015-02-01 13:40:00,39.8,35.1,29.75,SSE,162,0.0,0.0,83,0.00,,,0.06,WeatherCatV1.23B16,2015-02-01 18:40:00,
2015-02-01 13:45:00,39.9,35.5,29.73,SSE,162,0.0,0.0,84,0.07,,,0.07,WeatherCatV1.23B16,2015-02-01 18:45:00,
2015-02-01 13:50:00,40.1,35.7,29.73,NW,316,0.0,1.0,84,0.07,,,0.07,WeatherCatV1.23B16,2015-02-01 18:50:00,
2015-02-01 13:55:00,40.2,36.1,29.73,NNW,329,0.0,2.0,85,0.04,,,0.07,WeatherCatV1.23B16,2015-02-01 18:55:00,
2015-02-01 14:00:00,40.2,36.3,29.72,NNW,329,0.0,0.0,86,0.04,,,0.08,WeatherCatV1.23B16,2015-02-01 19:00:00,
2015-02-01 14:05:00,40.3,36.5,29.72,WNW,297,0.0,0.0,86,0.08,,,0.09,WeatherCatV1.23B16,2015-02-01 19:05:00,
2015-02-01 14:10:00,40.5,36.7,29.72,NW,322,0.0,3.0,86,0.08,,,0.09,WeatherCatV1.23B16,2015-02-01 19:10:00,
2015-02-01 14:15:00,40.6,37.0,29.70,NW,322,0.0,0.0,87,0.05,,,0.09,WeatherCatV1.23B16,2015-02-01 19:15:00,
2015-02-01 14:20:00,40.8,37.2,29.70,NW,322,0.0,0.0,87,0.04,,,0.10,WeatherCatV1.23B16,2015-02-01 19:20:00,
2015-02-01 14:25:00,40.9,37.3,29.70,NW,322,0.0,0.0,87,0.04,,,0.10,WeatherCatV1.23B16,2015-02-01 19:25:00,
2015-02-01 14:30:00,40.9,37.3,29.70,NW,322,0.0,0.0,87,0.08,,,0.11,WeatherCatV1.23B16,2015-02-01 19:30:00,
2015-02-01 14:35:00,40.9,37.3,29.70,NW,322,0.0,0.0,87,0.07,,,0.11,WeatherCatV1.23B16,2015-02-01 19:35:00,
2015-02-01 14:40:00,41.1,37.8,29.70,ENE,73,0.0,1.0,88,0.04,,,0.11,WeatherCatV1.23B16,2015-02-01 19:40:00,
2015-02-01 14:45:00,41.1,37.8,29.69,ENE,74,0.0,0.0,88,0.00,,,0.11,WeatherCatV1.23B16,2015-02-01 19:45:00,
2015-02-01 14:50:00,40.9,37.6,29.69,SSW,198,0.0,1.0,88,0.00,,,0.11,WeatherCatV1.23B16,2015-02-01 19:50:00,
2015-02-01 14:55:00,40.8,37.5,29.69,SSW,198,0.0,0.0,88,0.00,,,0.11,WeatherCatV1.23B16,2015-02-01 19:55:00,
2015-02-01 15:00:00,40.8,37.5,29.67,NNE,21,0.0,1.0,88,0.00,,,0.11,WeatherCatV1.23B16,2015-02-01 20:00:00,
2015-02-01 15:05:00,40.6,37.3,29.67,North,9,0.0,0.0,88,0.00,,,0.11,WeatherCatV1.23B16,2015-02-01 20:05:00,
2015-02-01 15:10:00,40.6,37.3,29.67,North,355,0.0,0.0,88,0.00,,,0.11,WeatherCatV1.23B16,2015-02-01 20:10:00,
2015-02-01 15:15:00,40.5,37.2,29.67,North,9,0.0,0.0,88,0.00,,,0.11,WeatherCatV1.23B16,2015-02-01 20:15:00,
2015-02-01 15:20:00,40.5,37.2,29.67,North,9,0.0,0.0,88,0.00,,,0.11,WeatherCatV1.23B16,2015-02-01 20:20:00,
2015-02-01 15:25:00,40.5,37.2,29.67,North,9,0.0,0.0,88,0.00,,,0.11,WeatherCatV1.23B16,2015-02-01 20:25:00,
2015-02-01 15:30:00,40.3,37.0,29.67,North,9,0.0,0.0,88,0.00,,,0.11,WeatherCatV1.23B16,2015-02-01 20:30:00,
2015-02-01 15:35:00,40.3,37.0,29.67,NW,309,0.0,0.0,88,0.00,,,0.11,WeatherCatV1.23B16,2015-02-01 20:35:00,
2015-02-01 15:40:00,40.2,36.9,29.67,North,349,0.0,0.0,88,0.00,,,0.11,WeatherCatV1.23B16,2015-02-01 20:40:00,
2015-02-01 15:45:00,40.2,36.9,29.66,North,349,0.0,0.0,88,0.00,,,0.11,WeatherCatV1.23B16,2015-02-01 20:45:00,
2015-02-01 15:50:00,40.2,36.9,29.66,North,349,0.0,0.0,88,0.00,,,0.11,WeatherCatV1.23B16,2015-02-01 20:50:00,
2015-02-01 15:55:00,40.1,36.8,29.66,North,349,0.0,0.0,88,0.00,,,0.11,WeatherCatV1.23B16,2015-02-01 20:55:00,
2015-02-01 16:00:00,40.1,37.1,29.65,North,349,0.0,0.0,89,0.00,,,0.11,WeatherCatV1.23B16,2015-02-01 21:00:00,
2015-02-01 16:05:00,40.1,37.1,29.65,North,349,0.0,0.0,89,0.00,,,0.11,WeatherCatV1.23B16,2015-02-01 21:05:00,
2015-02-01 16:10:00,40.1,37.1,29.65,North,349,0.0,0.0,89,0.00,,,0.11,WeatherCatV1.23B16,2015-02-01 21:10:00,
2015-02-01 16:15:00,39.9,36.9,29.64,North,349,0.0,0.0,89,0.00,,,0.11,WeatherCatV1.23B16,2015-02-01 21:15:00,
2015-02-01 16:20:00,40.1,37.1,29.64,NW,304,0.0,0.0,89,0.00,,,0.12,WeatherCatV1.23B16,2015-02-01 21:20:00,
2015-02-01 16:25:00,40.1,37.1,29.64,NW,304,0.0,0.0,89,0.00,,,0.12,WeatherCatV1.23B16,2015-02-01 21:25:00,
2015-02-01 16:30:00,40.1,37.1,29.62,NW,304,0.0,0.0,89,0.00,,,0.12,WeatherCatV1.23B16,2015-02-01 21:30:00,
2015-02-01 16:35:00,40.1,37.1,29.62,NW,304,0.0,0.0,89,0.00,,,0.12,WeatherCatV1.23B16,2015-02-01 21:35:00,
2015-02-01 16:40:00,40.1,37.1,29.62,NW,304,0.0,0.0,89,0.00,,,0.12,WeatherCatV1.23B16,2015-02-01 21:40:00,
2015-02-01 16:45:00,39.9,36.9,29.61,NW,304,0.0,0.0,89,0.00,,,0.12,WeatherCatV1.23B16,2015-02-01 21:45:00,
2015-02-01 16:50:00,39.9,36.9,29.61,NW,304,0.0,0.0,89,0.00,,,0.12,WeatherCatV1.23B16,2015-02-01 21:50:00,
2015-02-01 16:55:00,39.9,36.9,29.61,NW,304,0.0,0.0,89,0.00,,,0.12,WeatherCatV1.23B16,2015-02-01 21:55:00,
2015-02-01 17:00:00,40.1,37.1,29.60,NW,304,0.0,0.0,89,0.00,,,0.12,WeatherCatV1.23B16,2015-02-01 22:00:00,
2015-02-01 17:05:00,40.1,37.1,29.60,NW,304,0.0,1.0,89,0.00,,,0.12,WeatherCatV1.23B16,2015-02-01 22:05:00,
2015-02-01 17:10:00,40.1,37.4,29.60,NW,304,0.0,0.0,90,0.00,,,0.12,WeatherCatV1.23B16,2015-02-01 22:10:00,
2015-02-01 17:15:00,40.1,37.4,29.59,NW,304,0.0,0.0,90,0.00,,,0.12,WeatherCatV1.23B16,2015-02-01 22:15:00,
2015-02-01 17:20:00,40.2,37.5,29.59,NW,320,0.0,2.0,90,0.00,,,0.12,WeatherCatV1.23B16,2015-02-01 22:20:00,
2015-02-01 17:25:00,40.2,37.5,29.59,NW,319,0.0,0.0,90,0.00,,,0.12,WeatherCatV1.23B16,2015-02-01 22:25:00,
2015-02-01 17:30:00,40.2,37.5,29.59,NW,319,0.0,0.0,90,0.00,,,0.12,WeatherCatV1.23B16,2015-02-01 22:30:00,